createdAt,value
2023-04-17T00:01:28.746Z,95339
2023-04-17T00:04:54.034Z,95336
2023-04-17T00:08:19.168Z,95338
2023-04-17T00:11:44.382Z,95339
2023-04-17T00:15:09.630Z,95340
2023-04-17T00:18:34.834Z,95334
2023-04-17T00:22:00.058Z,95337
2023-04-17T00:25:25.248Z,95330
2023-04-17T00:28:50.463Z,95329
2023-04-17T00:32:15.701Z,95331
2023-04-17T00:35:40.897Z,95335
2023-04-17T00:39:06.100Z,95334
2023-04-17T00:42:31.307Z,95329
2023-04-17T00:45:56.523Z,95330
2023-04-17T00:49:21.715Z,95331
2023-04-17T00:52:46.927Z,95331
2023-04-17T00:56:12.143Z,95332
2023-04-17T00:59:37.602Z,95334
2023-04-17T01:03:02.940Z,95328
2023-04-17T01:06:28.046Z,95333
2023-04-17T01:09:53.228Z,95327
2023-04-17T01:13:18.468Z,95329
2023-04-17T01:16:43.705Z,95323
2023-04-17T01:20:08.924Z,95326
2023-04-17T01:23:34.136Z,95329
2023-04-17T01:26:59.326Z,95327
2023-04-17T01:30:24.521Z,95324
2023-04-17T01:33:49.734Z,95324
2023-04-17T01:37:14.957Z,95326
2023-04-17T01:40:40.195Z,95324
2023-04-17T01:44:05.366Z,95330
2023-04-17T01:47:30.618Z,95328
2023-04-17T01:50:55.795Z,95330
2023-04-17T01:54:21.009Z,95333
2023-04-17T01:57:46.243Z,95338
2023-04-17T02:01:11.455Z,95341
2023-04-17T02:04:36.680Z,95336
2023-04-17T02:08:01.836Z,95337
2023-04-17T02:11:27.072Z,95337
2023-04-17T02:14:52.302Z,95339
2023-04-17T02:18:17.485Z,95339
2023-04-17T02:21:42.696Z,95337
2023-04-17T02:25:07.915Z,95339
2023-04-17T02:28:33.116Z,95344
2023-04-17T02:31:58.353Z,95343
2023-04-17T02:35:23.527Z,95348
2023-04-17T02:38:48.718Z,95348
2023-04-17T02:42:13.937Z,95344
2023-04-17T02:45:39.154Z,95345
2023-04-17T02:49:04.375Z,95343
2023-04-17T02:52:29.577Z,95335
2023-04-17T02:55:54.787Z,95339
2023-04-17T02:59:19.983Z,95338
2023-04-17T03:02:45.268Z,95342
2023-04-17T03:06:10.415Z,95335
2023-04-17T03:09:35.591Z,95337
2023-04-17T03:13:00.810Z,95336
2023-04-17T03:16:26.031Z,95337
2023-04-17T03:19:51.245Z,95338
2023-04-17T03:23:16.445Z,95339
2023-04-17T03:26:41.648Z,95343
2023-04-17T03:30:06.861Z,95342
2023-04-17T03:33:32.052Z,95339
2023-04-17T03:36:57.270Z,95342
2023-04-17T03:40:22.665Z,95344
2023-04-17T03:43:47.860Z,95346
2023-04-17T03:47:13.109Z,95349
2023-04-17T03:50:38.322Z,95347
2023-04-17T03:54:03.521Z,95347
2023-04-17T03:57:28.767Z,95342
2023-04-17T04:00:54.024Z,95346
2023-04-17T04:04:19.341Z,95346
2023-04-17T04:07:44.448Z,95351
2023-04-17T04:11:09.680Z,95350
2023-04-17T04:14:34.925Z,95353
2023-04-17T04:18:00.141Z,95355
2023-04-17T04:21:25.314Z,95355
2023-04-17T04:24:50.509Z,95358
2023-04-17T04:28:15.761Z,95366
2023-04-17T04:31:41.055Z,95366
2023-04-17T04:35:06.210Z,95367
2023-04-17T04:38:31.438Z,95364
2023-04-17T04:41:56.629Z,95362
2023-04-17T04:45:21.855Z,95362
2023-04-17T04:48:47.096Z,95372
2023-04-17T04:52:12.276Z,95363
2023-04-17T04:55:37.497Z,95371
2023-04-17T04:59:02.722Z,95371
2023-04-17T05:02:28.068Z,95373
2023-04-17T05:05:53.180Z,95375
2023-04-17T05:09:18.618Z,95378
2023-04-17T05:12:43.587Z,95382
2023-04-17T05:16:08.798Z,95385
2023-04-17T05:19:34.007Z,95386
2023-04-17T05:22:59.222Z,95386
2023-04-17T05:26:24.422Z,95390
2023-04-17T05:29:49.588Z,95398
2023-04-17T05:33:14.806Z,95404
2023-04-17T05:36:40.005Z,95405
2023-04-17T05:40:05.228Z,95404
2023-04-17T05:43:30.497Z,95401
2023-04-17T05:46:55.656Z,95412
2023-04-17T05:50:20.838Z,95411
2023-04-17T05:53:46.022Z,95411
2023-04-17T05:57:11.367Z,95413
2023-04-17T06:00:36.439Z,95422
2023-04-17T06:04:02.310Z,95423
2023-04-17T06:07:26.888Z,95420
2023-04-17T06:10:52.095Z,95417
2023-04-17T06:14:17.494Z,95423
2023-04-17T06:17:42.530Z,95425
2023-04-17T06:21:07.716Z,95422
2023-04-17T06:24:32.926Z,95418
2023-04-17T06:27:58.135Z,95423
2023-04-17T06:31:23.526Z,95421
2023-04-17T06:34:58.923Z,95423
2023-04-17T06:38:13.917Z,95420
2023-04-17T06:41:39.166Z,95424
2023-04-17T06:45:04.390Z,95427
2023-04-17T06:48:29.863Z,95425
2023-04-17T06:51:54.900Z,95433
2023-04-17T06:55:20.154Z,95430
2023-04-17T06:58:45.366Z,95436
2023-04-17T07:02:10.712Z,95439
2023-04-17T07:05:35.816Z,95440
2023-04-17T07:09:01.014Z,95443
2023-04-17T07:12:26.242Z,95450
2023-04-17T07:15:51.584Z,95447
2023-04-17T07:19:16.708Z,95451
2023-04-17T07:22:41.938Z,95458
2023-04-17T07:26:07.142Z,95458
2023-04-17T07:29:32.344Z,95464
2023-04-17T07:32:57.590Z,95468
2023-04-17T07:36:22.786Z,95469
2023-04-17T07:39:48.030Z,95472
2023-04-17T07:43:13.221Z,95472
2023-04-17T07:46:39.260Z,95472
2023-04-17T07:50:04.475Z,95481
2023-04-17T07:53:30.294Z,95482
2023-04-17T07:56:55.540Z,95482
2023-04-17T08:00:20.744Z,95479
2023-04-17T08:03:46.142Z,95483
2023-04-17T08:07:11.237Z,95485
2023-04-17T08:10:36.491Z,95489
2023-04-17T08:14:01.738Z,95489
2023-04-17T08:17:27.005Z,95492
2023-04-17T08:20:52.816Z,95495
2023-04-17T08:24:19.860Z,95497
2023-04-17T08:27:43.244Z,95502
2023-04-17T08:31:08.540Z,95506
2023-04-17T08:34:33.828Z,95501
2023-04-17T08:37:59.196Z,95502
2023-04-17T08:41:24.363Z,95514
2023-04-17T08:44:49.553Z,95510
2023-04-17T08:48:14.786Z,95513
2023-04-17T08:51:40.016Z,95520
2023-04-17T08:55:05.230Z,95518
2023-04-17T08:58:30.506Z,95522
2023-04-17T09:01:55.768Z,95523
2023-04-17T09:05:20.962Z,95527
2023-04-17T09:08:46.185Z,95530
2023-04-17T09:12:11.392Z,95533
2023-04-17T09:15:36.641Z,95534
2023-04-17T09:19:01.837Z,95532
2023-04-17T09:22:27.127Z,95535
2023-04-17T09:25:52.313Z,95531
2023-04-17T09:29:17.501Z,95533
2023-04-17T09:32:42.713Z,95536
2023-04-17T09:36:07.925Z,95531
2023-04-17T09:39:33.133Z,95539
2023-04-17T09:42:58.317Z,95531
2023-04-17T09:46:23.569Z,95538
2023-04-17T09:49:48.741Z,95540
2023-04-17T09:53:13.979Z,95544
2023-04-17T09:56:39.390Z,95545
2023-04-17T10:00:04.394Z,95547
2023-04-17T10:03:29.741Z,95544
2023-04-17T10:06:54.852Z,95551
2023-04-17T10:10:20.057Z,95553
2023-04-17T10:13:45.299Z,95552
2023-04-17T10:17:10.491Z,95550
2023-04-17T10:20:36.991Z,95551
2023-04-17T10:24:02.189Z,95552
2023-04-17T10:27:27.440Z,95552
2023-04-17T10:30:52.673Z,95549
2023-04-17T10:34:17.873Z,95551
2023-04-17T10:37:43.094Z,95550
2023-04-17T10:41:08.342Z,95549
2023-04-17T10:44:33.556Z,95547
2023-04-17T10:47:58.993Z,95543
2023-04-17T10:51:24.146Z,95547
2023-04-17T10:54:49.307Z,95549
2023-04-17T10:58:14.506Z,95550
2023-04-17T11:01:39.783Z,95551
2023-04-17T11:05:05.166Z,95551
2023-04-17T11:08:30.154Z,95552
2023-04-17T11:11:55.415Z,95552
2023-04-17T11:15:20.618Z,95549
2023-04-17T11:18:45.819Z,95551
2023-04-17T11:22:11.082Z,95549
2023-04-17T11:25:36.320Z,95551
2023-04-17T11:29:01.536Z,95558
2023-04-17T11:32:26.766Z,95552
2023-04-17T11:35:51.970Z,95551
2023-04-17T11:39:17.219Z,95549
2023-04-17T11:42:42.525Z,95554
2023-04-17T11:46:08.255Z,95554
2023-04-17T11:49:33.479Z,95557
2023-04-17T11:52:58.685Z,95557
2023-04-17T11:56:23.982Z,95560
2023-04-17T11:59:49.156Z,95557
2023-04-17T12:03:14.481Z,95559
2023-04-17T12:06:39.559Z,95566
2023-04-17T12:10:04.780Z,95563
2023-04-17T12:13:31.435Z,95566
2023-04-17T12:16:56.605Z,95569
2023-04-17T12:20:21.779Z,95567
2023-04-17T12:23:46.981Z,95570
2023-04-17T12:27:12.198Z,95568
2023-04-17T12:30:37.452Z,95571
2023-04-17T12:34:02.644Z,95567
2023-04-17T12:37:27.885Z,95574
2023-04-17T12:40:53.772Z,95577
2023-04-17T12:44:18.997Z,95573
2023-04-17T12:47:44.293Z,95572
2023-04-17T12:51:09.399Z,95569
2023-04-17T12:54:34.603Z,95568
2023-04-17T12:57:59.810Z,95566
2023-04-17T13:01:25.047Z,95568
2023-04-17T13:04:52.523Z,95567
2023-04-17T13:08:15.549Z,95576
2023-04-17T13:11:40.792Z,95570
2023-04-17T13:15:06.032Z,95570
2023-04-17T13:18:31.266Z,95567
2023-04-17T13:21:56.481Z,95569
2023-04-17T13:25:21.668Z,95572
2023-04-17T13:28:46.943Z,95567
2023-04-17T13:32:12.185Z,95567
2023-04-17T13:35:37.432Z,95563
2023-04-17T13:39:02.733Z,95565
2023-04-17T13:42:27.900Z,95566
2023-04-17T13:45:55.453Z,95564
2023-04-17T13:49:18.368Z,95561
2023-04-17T13:52:43.628Z,95561
2023-04-17T13:56:08.859Z,95555
2023-04-17T13:59:34.124Z,95557
2023-04-17T14:02:59.419Z,95562
2023-04-17T14:06:24.532Z,95559
2023-04-17T14:09:49.747Z,95556
2023-04-17T14:13:14.986Z,95555
2023-04-17T14:16:40.175Z,95555
2023-04-17T14:20:05.412Z,95557
2023-04-17T14:23:30.670Z,95549
2023-04-17T14:26:56.405Z,95557
2023-04-17T14:30:21.672Z,95552
2023-04-17T14:33:46.879Z,95548
2023-04-17T14:37:12.104Z,95549
2023-04-17T14:40:37.322Z,95552
2023-04-17T14:44:02.544Z,95553
2023-04-17T14:47:29.851Z,95547
2023-04-17T14:50:52.971Z,95548
2023-04-17T14:54:18.223Z,95550
2023-04-17T14:57:43.455Z,95551
2023-04-17T15:01:08.725Z,95555
2023-04-17T15:04:34.062Z,95556
2023-04-17T15:42:29.635Z,95566
2023-04-17T15:45:54.914Z,95573
2023-04-17T15:49:20.067Z,95565
2023-04-17T15:52:45.291Z,95569
2023-04-17T15:56:10.537Z,95570
2023-04-17T15:59:35.873Z,95560
2023-04-17T16:03:01.130Z,95562
2023-04-17T16:06:26.192Z,95561
2023-04-17T16:09:51.412Z,95558
2023-04-17T16:13:16.641Z,95557
2023-04-17T16:16:41.875Z,95560
2023-04-17T16:20:07.060Z,95555
2023-04-17T16:23:32.296Z,95555
2023-04-17T16:26:57.532Z,95554
2023-04-17T16:30:22.750Z,95556
2023-04-17T16:33:47.961Z,95559
2023-04-17T16:37:13.157Z,95560
2023-04-17T16:40:38.420Z,95559
2023-04-17T16:44:03.639Z,95559
2023-04-17T16:47:28.875Z,95561
2023-04-17T16:50:54.125Z,95562
2023-04-17T16:54:19.278Z,95564
2023-04-17T16:57:44.564Z,95565
2023-04-17T17:01:09.800Z,95557
2023-04-17T17:04:35.065Z,95566
2023-04-17T17:08:00.271Z,95567
2023-04-17T17:11:25.465Z,95568
2023-04-17T17:14:50.640Z,95567
2023-04-17T17:18:15.893Z,95570
2023-04-17T17:21:41.149Z,95576
2023-04-17T17:25:06.380Z,95571
2023-04-17T17:28:31.564Z,95563
2023-04-17T17:31:56.792Z,95568
2023-04-17T17:35:21.987Z,95575
2023-04-17T17:38:47.197Z,95572
2023-04-17T17:42:12.500Z,95578
2023-04-17T17:45:37.767Z,95579
2023-04-17T17:49:02.921Z,95586
2023-04-17T17:52:28.142Z,95589
2023-04-17T17:55:53.368Z,95590
2023-04-17T17:59:18.596Z,95593
2023-04-17T18:02:43.902Z,95598
2023-04-17T18:06:09.030Z,95595
2023-04-17T18:09:34.256Z,95593
2023-04-17T18:12:59.482Z,95586
2023-04-17T18:16:24.798Z,95587
2023-04-17T18:19:49.918Z,95595
2023-04-17T18:23:15.172Z,95598
2023-04-17T18:26:40.449Z,95602
2023-04-17T18:30:05.671Z,95601
2023-04-17T18:33:30.928Z,95604
2023-04-17T18:36:56.121Z,95599
2023-04-17T18:40:21.334Z,95604
2023-04-17T18:43:46.542Z,95609
2023-04-17T18:47:11.760Z,95602
2023-04-17T18:50:37.037Z,95610
2023-04-17T18:54:02.260Z,95606
2023-04-17T18:57:27.516Z,95606
2023-04-17T19:00:52.759Z,95608
2023-04-17T19:04:17.980Z,95615
2023-04-17T19:07:43.260Z,95620
2023-04-17T19:11:08.445Z,95624
2023-04-17T19:14:33.666Z,95618
2023-04-17T19:17:58.904Z,95616
2023-04-17T19:21:24.114Z,95615
2023-04-17T19:24:49.355Z,95608
2023-04-17T19:28:14.527Z,95617
2023-04-17T19:31:39.866Z,95611
2023-04-17T19:35:05.076Z,95612
2023-04-17T19:38:30.288Z,95608
2023-04-17T19:41:55.505Z,95612
2023-04-17T19:45:20.741Z,95614
2023-04-17T19:48:45.954Z,95606
2023-04-17T19:52:11.177Z,95610
2023-04-17T19:55:36.377Z,95609
2023-04-17T19:59:01.585Z,95609
2023-04-17T20:02:26.827Z,95606
2023-04-17T20:05:52.058Z,95608
2023-04-17T20:09:17.410Z,95616
2023-04-17T20:12:42.520Z,95614
2023-04-17T20:16:07.817Z,95612
2023-04-17T20:19:32.945Z,95614
2023-04-17T20:22:58.189Z,95617
2023-04-17T20:26:23.397Z,95613
2023-04-17T20:29:48.634Z,95616
2023-04-17T20:33:13.924Z,95613
2023-04-17T20:36:39.036Z,95617
2023-04-17T20:40:04.309Z,95619
2023-04-17T20:43:29.542Z,95615
2023-04-17T20:46:54.732Z,95619
2023-04-17T20:50:20.049Z,95622
2023-04-17T20:53:45.215Z,95620
2023-04-17T20:57:10.416Z,95622
2023-04-17T21:00:35.802Z,95615
2023-04-17T21:04:00.882Z,95622
2023-04-17T21:07:26.064Z,95622
2023-04-17T21:10:51.263Z,95625
2023-04-17T21:14:16.493Z,95623
2023-04-17T21:17:41.759Z,95621
2023-04-17T21:21:06.983Z,95623
2023-04-17T21:24:32.217Z,95626
2023-04-17T21:27:57.425Z,95625
2023-04-17T21:31:22.635Z,95625
2023-04-17T21:34:47.825Z,95625
2023-04-17T21:38:13.069Z,95624
2023-04-17T21:41:38.297Z,95624
2023-04-17T21:45:03.490Z,95621
2023-04-17T21:48:28.688Z,95622
2023-04-17T21:51:53.940Z,95617
2023-04-17T21:55:19.159Z,95620
2023-04-17T21:58:44.434Z,95620
2023-04-17T22:02:09.635Z,95621
2023-04-17T22:05:34.815Z,95619
2023-04-17T22:09:00.049Z,95616
2023-04-17T22:12:25.289Z,95616
2023-04-17T22:15:50.585Z,95616
2023-04-17T22:19:15.784Z,95615
2023-04-17T22:22:41.047Z,95621
2023-04-17T22:26:06.194Z,95619
2023-04-17T22:29:31.481Z,95616
2023-04-17T22:32:56.756Z,95620
2023-04-17T22:36:21.930Z,95621
2023-04-17T22:39:47.144Z,95627
2023-04-17T22:43:12.373Z,95626
2023-04-17T22:46:37.742Z,95623
2023-04-17T22:50:02.816Z,95622
2023-04-17T22:53:27.962Z,95619
2023-04-17T22:56:53.181Z,95625
2023-04-17T23:00:18.381Z,95630
2023-04-17T23:03:43.653Z,95627
2023-04-17T23:07:08.863Z,95631
2023-04-17T23:10:34.014Z,95626
2023-04-17T23:13:59.215Z,95629
2023-04-17T23:17:24.502Z,95631
2023-04-17T23:20:49.666Z,95621
2023-04-17T23:24:15.146Z,95629
2023-04-17T23:27:40.282Z,95629
2023-04-17T23:31:05.504Z,95629
2023-04-17T23:34:30.696Z,95633
2023-04-17T23:37:55.894Z,95626
2023-04-17T23:41:21.204Z,95618
2023-04-17T23:44:46.325Z,95611
2023-04-17T23:48:11.596Z,95607
2023-04-17T23:51:36.810Z,95610
2023-04-17T23:55:01.980Z,95606
2023-04-17T23:58:27.223Z,95611
